Time;durP1;ratioP1;P1;durP2;ratioP2;P2;SDS_P1;SDS_P2;PMS_P1;PMS_P2;Temp;Humidity;BMP_temperature;BMP_pressure;BME280_temperature;BME280_humidity;BME280_pressure;Samples;Min_cycle;Max_cycle;Signal;HPM_P1;HPM_P2
2024/05/06 00:02:22;;;;;;;7.72;4.05;;;14.20;99.90;;;;;;5346907;26;20522;-72
2024/05/06 00:04:47;;;;;;;5.13;3.63;;;14.20;99.90;;;;;;5346305;26;20033;-72
2024/05/06 00:07:13;;;;;;;5.18;3.20;;;14.20;99.90;;;;;;5346685;26;20001;-71
2024/05/06 00:09:38;;;;;;;4.88;2.92;;;14.20;99.90;;;;;;5346365;26;20000;-72
2024/05/06 00:12:04;;;;;;;7.75;4.07;;;14.20;99.90;;;;;;5346688;26;19997;-72
2024/05/06 00:14:30;;;;;;;7.22;3.83;;;14.20;99.90;;;;;;5345904;26;20007;-71
2024/05/06 00:16:56;;;;;;;6.80;3.90;;;14.30;99.90;;;;;;5346752;26;20425;-72
2024/05/06 00:19:21;;;;;;;5.00;3.15;;;14.20;99.90;;;;;;5346400;26;20633;-70
2024/05/06 00:21:47;;;;;;;6.78;2.65;;;14.20;99.90;;;;;;5346925;26;19993;-71
2024/05/06 00:24:13;;;;;;;3.22;2.15;;;14.20;99.90;;;;;;5345835;26;20071;-71
2024/05/06 00:26:38;;;;;;;4.25;2.20;;;14.20;99.90;;;;;;5346493;26;20001;-72
2024/05/06 00:29:04;;;;;;;4.40;2.25;;;14.10;99.90;;;;;;5315656;26;20000;-71
2024/05/06 00:31:29;;;;;;;4.22;2.65;;;14.20;99.90;;;;;;5346188;26;20015;-71
2024/05/06 00:33:55;;;;;;;4.40;2.30;;;14.10;99.90;;;;;;5345916;26;20000;-72
2024/05/06 00:36:21;;;;;;;4.60;2.40;;;14.20;99.90;;;;;;5345368;26;20012;-71
2024/05/06 00:38:46;;;;;;;4.55;3.47;;;14.10;99.90;;;;;;5345910;26;20075;-72
2024/05/06 00:41:12;;;;;;;6.57;3.20;;;14.20;99.90;;;;;;5346059;26;20078;-71
2024/05/06 00:43:38;;;;;;;5.47;2.75;;;14.20;99.90;;;;;;5345965;26;20011;-72
2024/05/06 00:46:04;;;;;;;5.70;2.80;;;14.10;99.90;;;;;;5345914;26;20001;-73
2024/05/06 00:48:30;;;;;;;5.32;2.83;;;14.10;99.90;;;;;;5346068;26;20001;-70
2024/05/06 00:50:58;;;;;;;3.78;2.10;;;14.10;99.90;;;;;;5345797;26;20507;-72
2024/05/06 00:53:25;;;;;;;4.05;2.10;;;14.10;99.90;;;;;;5345329;26;20001;-71
2024/05/06 00:55:51;;;;;;;2.72;1.75;;;14.00;99.90;;;;;;5345642;26;20467;-71
2024/05/06 00:58:20;;;;;;;3.35;1.98;;;13.90;99.90;;;;;;5346280;26;19993;-72
2024/05/06 01:00:47;;;;;;;2.42;1.52;;;13.90;99.90;;;;;;5345664;26;20001;-72
2024/05/06 01:03:13;;;;;;;3.08;1.80;;;13.90;99.90;;;;;;5345510;26;20333;-71
2024/05/06 01:05:40;;;;;;;2.95;1.90;;;13.90;99.90;;;;;;5345606;26;20013;-71
2024/05/06 01:08:06;;;;;;;4.30;1.60;;;13.90;99.90;;;;;;5345749;26;19993;-72
2024/05/06 01:10:32;;;;;;;2.78;1.50;;;13.80;99.90;;;;;;5345644;26;20008;-71
2024/05/06 01:12:59;;;;;;;6.95;2.67;;;13.80;99.90;;;;;;5345627;26;20327;-72
2024/05/06 01:15:33;;;;;;;7.20;2.40;;;13.80;99.90;;;;;;5345754;26;20020;-72
2024/05/06 01:17:59;;;;;;;5.95;2.45;;;13.80;99.90;;;;;;5344982;26;19993;-71
2024/05/06 01:20:25;;;;;;;5.45;3.78;;;13.80;99.90;;;;;;5345620;26;20019;-72
2024/05/06 01:22:52;;;;;;;9.30;4.93;;;13.90;99.90;;;;;;5345776;26;20007;-72
2024/05/06 01:25:17;;;;;;;7.53;5.75;;;13.90;99.90;;;;;;5345499;26;20013;-72
2024/05/06 01:27:43;;;;;;;7.65;5.20;;;13.90;99.90;;;;;;5344677;26;20000;-72
2024/05/06 01:30:09;;;;;;;11.88;6.43;;;13.90;99.90;;;;;;5345392;26;20001;-72
2024/05/06 01:32:37;;;;;;;11.18;6.25;;;13.90;99.90;;;;;;5344994;26;20007;-72
2024/05/06 01:35:03;;;;;;;8.80;6.68;;;14.00;99.90;;;;;;5344661;26;20005;-72
2024/05/06 01:37:29;;;;;;;11.73;7.00;;;14.00;99.90;;;;;;5345138;26;20000;-72
2024/05/06 01:39:55;;;;;;;11.43;6.90;;;14.00;99.90;;;;;;5345078;26;19995;-71
2024/05/06 01:42:21;;;;;;;9.05;6.18;;;14.00;99.90;;;;;;5344989;26;20025;-71
2024/05/06 01:44:47;;;;;;;10.52;6.22;;;14.00;99.90;;;;;;5344539;26;19997;-72
2024/05/06 01:47:17;;;;;;;9.05;6.53;;;14.00;99.90;;;;;;5346298;26;20077;-72
2024/05/06 01:49:43;;;;;;;10.52;6.53;;;14.00;99.90;;;;;;5348403;26;20011;-72
2024/05/06 01:52:08;;;;;;;11.55;6.03;;;14.00;99.90;;;;;;5348036;26;20001;-71
2024/05/06 01:54:34;;;;;;;10.93;6.20;;;13.90;99.90;;;;;;5348352;26;19997;-71
2024/05/06 01:57:00;;;;;;;9.50;6.10;;;13.90;99.90;;;;;;5348526;26;20376;-72
2024/05/06 01:59:25;;;;;;;8.70;5.32;;;13.90;99.90;;;;;;5348383;26;20012;-72
2024/05/06 02:01:51;;;;;;;8.23;5.78;;;13.90;99.90;;;;;;5348915;26;20000;-72
2024/05/06 02:04:16;;;;;;;8.65;5.70;;;13.90;99.90;;;;;;5347821;26;20016;-71
2024/05/06 02:06:44;;;;;;;10.05;6.40;;;13.80;99.90;;;;;;5348378;26;20012;-72
2024/05/06 02:09:10;;;;;;;8.80;5.70;;;13.90;99.90;;;;;;5348210;26;20000;-72
2024/05/06 02:11:39;;;;;;;8.15;5.45;;;13.90;99.90;;;;;;5348065;26;20433;-72
2024/05/06 02:14:05;;;;;;;8.43;6.18;;;13.80;99.90;;;;;;5347744;26;19997;-71
2024/05/06 02:16:31;;;;;;;8.45;6.18;;;13.80;99.90;;;;;;5348130;26;20344;-71
2024/05/06 02:18:56;;;;;;;7.65;5.35;;;13.70;99.90;;;;;;5347840;26;20345;-71
2024/05/06 02:21:22;;;;;;;8.20;5.63;;;13.70;99.90;;;;;;5348496;26;20408;-71
2024/05/06 02:23:48;;;;;;;8.13;5.80;;;13.70;99.90;;;;;;5347735;26;19993;-72
2024/05/06 02:26:13;;;;;;;9.02;6.05;;;13.70;99.90;;;;;;5347846;26;20011;-71
2024/05/06 02:28:40;;;;;;;7.75;5.90;;;13.60;99.90;;;;;;5347691;26;19997;-72
2024/05/06 02:31:06;;;;;;;7.88;6.03;;;13.60;99.90;;;;;;5317675;26;20325;-71
2024/05/06 02:33:32;;;;;;;10.50;7.57;;;13.60;99.90;;;;;;5347693;26;20001;-71
2024/05/06 02:35:57;;;;;;;9.55;6.25;;;13.60;99.90;;;;;;5347921;26;19997;-71
2024/05/06 02:38:23;;;;;;;8.95;6.53;;;13.60;99.90;;;;;;5347830;26;20457;-72
2024/05/06 02:40:49;;;;;;;10.63;7.20;;;13.60;99.90;;;;;;5347596;26;20031;-72
2024/05/06 02:43:14;;;;;;;11.02;7.53;;;13.60;99.90;;;;;;5347753;26;20005;-72
2024/05/06 02:45:40;;;;;;;10.50;7.32;;;13.60;99.90;;;;;;5347638;26;20012;-71
2024/05/06 02:48:06;;;;;;;10.52;7.03;;;13.60;99.90;;;;;;5347780;26;20449;-71
2024/05/06 02:50:32;;;;;;;10.50;7.10;;;13.60;99.90;;;;;;5347368;26;20001;-72
2024/05/06 02:52:57;;;;;;;8.75;6.70;;;13.50;99.90;;;;;;5347680;26;20003;-71
2024/05/06 02:55:23;;;;;;;9.63;7.07;;;13.50;99.90;;;;;;5347287;26;20430;-71
2024/05/06 02:57:49;;;;;;;8.57;5.57;;;13.50;99.90;;;;;;5346889;26;19993;-72
2024/05/06 03:00:14;;;;;;;10.65;6.60;;;13.50;99.90;;;;;;5347831;26;20020;-72
2024/05/06 03:02:41;;;;;;;10.07;6.38;;;13.50;99.90;;;;;;5347582;26;20001;-72
2024/05/06 03:05:06;;;;;;;9.25;5.85;;;13.50;99.90;;;;;;5346944;26;20016;-72
2024/05/06 03:07:32;;;;;;;8.18;5.93;;;13.50;99.90;;;;;;5347294;26;20071;-71
2024/05/06 03:09:58;;;;;;;10.38;5.57;;;13.50;99.90;;;;;;5316094;26;20009;-72
2024/05/06 03:12:23;;;;;;;9.50;5.43;;;13.50;99.90;;;;;;5347397;26;20007;-72
2024/05/06 03:14:49;;;;;;;6.22;4.22;;;13.50;99.90;;;;;;5346792;26;20016;-71
2024/05/06 03:17:15;;;;;;;5.40;4.15;;;13.50;99.90;;;;;;5347288;26;20019;-72
2024/05/06 03:19:40;;;;;;;6.43;3.83;;;13.40;99.90;;;;;;5347090;26;20008;-72
2024/05/06 03:22:06;;;;;;;8.68;3.80;;;13.40;99.90;;;;;;5347213;26;20078;-72
2024/05/06 03:24:32;;;;;;;109.38;64.35;;;13.40;99.90;;;;;;5346923;26;20330;-72
2024/05/06 03:26:57;;;;;;;23.45;15.10;;;13.50;99.90;;;;;;5346935;26;20015;-71
2024/05/06 03:29:23;;;;;;;10.43;7.20;;;13.50;99.90;;;;;;5316289;26;19997;-72
2024/05/06 03:31:48;;;;;;;9.75;6.40;;;13.50;99.90;;;;;;5347072;26;20070;-69
2024/05/06 03:34:15;;;;;;;31.73;18.30;;;13.50;99.90;;;;;;5347063;26;20070;-71
2024/05/06 03:36:41;;;;;;;15.23;10.10;;;13.50;99.90;;;;;;5347222;26;19996;-72
2024/05/06 03:39:07;;;;;;;21.08;13.45;;;13.50;99.90;;;;;;5346816;26;20016;-72
2024/05/06 03:41:32;;;;;;;21.40;12.90;;;13.50;99.90;;;;;;5346735;26;20399;-72
2024/05/06 03:43:58;;;;;;;26.38;14.27;;;13.40;99.90;;;;;;5346676;26;20000;-72
2024/05/06 03:46:24;;;;;;;12.35;7.03;;;13.40;99.90;;;;;;5346822;26;20071;-72
2024/05/06 03:48:50;;;;;;;9.98;5.05;;;13.40;99.90;;;;;;5346669;26;19996;-71
2024/05/06 03:51:15;;;;;;;9.43;4.78;;;13.40;99.90;;;;;;5347159;26;20024;-72
2024/05/06 03:53:41;;;;;;;14.63;8.60;;;13.40;99.90;;;;;;5346258;26;20005;-72
2024/05/06 03:56:11;;;;;;;13.63;9.25;;;13.40;99.90;;;;;;5346933;26;20008;-72
2024/05/06 03:58:37;;;;;;;11.20;6.57;;;13.40;99.90;;;;;;5346475;26;20013;-71
2024/05/06 04:01:02;;;;;;;9.18;5.80;;;13.40;99.90;;;;;;5346680;26;20058;-72
2024/05/06 04:03:28;;;;;;;11.23;6.32;;;13.40;99.90;;;;;;5345953;26;20004;-71
2024/05/06 04:05:53;;;;;;;19.20;8.85;;;13.40;99.90;;;;;;5346690;26;19997;-72
2024/05/06 04:08:19;;;;;;;29.55;13.05;;;13.40;99.90;;;;;;5346464;26;20040;-71
2024/05/06 04:10:53;;;;;;;15.73;9.43;;;13.40;99.90;;;;;;5344958;26;20024;-72
2024/05/06 04:13:18;;;;;;;24.33;13.00;;;13.40;99.90;;;;;;5346317;26;20001;-71
2024/05/06 04:15:44;;;;;;;20.25;12.18;;;13.40;99.90;;;;;;5346143;26;19989;-72
2024/05/06 04:18:10;;;;;;;7.57;5.47;;;13.30;99.90;;;;;;5346359;26;20015;-72
2024/05/06 04:20:35;;;;;;;7.35;4.65;;;13.30;99.90;;;;;;5346243;26;20016;-72
2024/05/06 04:23:01;;;;;;;19.83;10.60;;;13.40;99.90;;;;;;5346099;26;20012;-71
2024/05/06 04:28:11;;;;;;;15.68;9.02;;;13.50;99.90;;;;;;5346826;26;20044;-72
2024/05/06 04:30:36;;;;;;;11.48;7.90;;;13.50;99.90;;;;;;5346026;26;20009;-72
2024/05/06 04:33:02;;;;;;;16.98;9.95;;;13.60;99.90;;;;;;5345712;26;20074;-71
2024/05/06 04:35:28;;;;;;;21.45;13.30;;;13.60;99.90;;;;;;5313548;26;20426;-71
2024/05/06 04:37:53;;;;;;;7.85;5.60;;;13.70;99.90;;;;;;5309339;27;20944;-72
2024/05/06 04:40:19;;;;;;;8.07;5.50;;;13.70;99.90;;;;;;5312623;26;20012;-72
2024/05/06 04:42:44;;;;;;;7.80;5.68;;;13.70;99.90;;;;;;5340039;26;19997;-71
2024/05/06 04:45:10;;;;;;;9.00;5.43;;;13.70;99.90;;;;;;5344066;26;20017;-71
2024/05/06 04:47:36;;;;;;;8.23;5.85;;;13.70;99.90;;;;;;5344789;26;20044;-73
2024/05/06 04:50:01;;;;;;;8.68;5.82;;;13.80;99.90;;;;;;5344933;26;20059;-73
2024/05/06 04:52:27;;;;;;;7.65;5.28;;;13.80;99.90;;;;;;5345000;26;20004;-71
2024/05/06 04:54:52;;;;;;;8.95;5.97;;;13.90;99.90;;;;;;5344393;26;20037;-72
2024/05/06 04:57:18;;;;;;;7.22;5.70;;;14.00;99.90;;;;;;5345701;26;19993;-72
2024/05/06 04:59:44;;;;;;;9.85;6.35;;;14.00;99.90;;;;;;5345519;26;20331;-72
2024/05/06 05:02:09;;;;;;;8.18;6.10;;;14.00;99.90;;;;;;5345382;26;20291;-71
2024/05/06 05:04:35;;;;;;;11.18;6.70;;;14.00;99.90;;;;;;5344920;26;20070;-72
2024/05/06 05:07:01;;;;;;;12.93;7.63;;;14.00;99.90;;;;;;5345042;26;20009;-72
2024/05/06 05:09:26;;;;;;;8.48;4.55;;;14.00;99.90;;;;;;5345699;26;20286;-71
2024/05/06 05:11:52;;;;;;;8.02;5.30;;;14.00;99.90;;;;;;5345740;26;20001;-72
2024/05/06 05:14:17;;;;;;;8.60;5.40;;;14.00;99.90;;;;;;5344889;26;20463;-72
2024/05/06 05:16:43;;;;;;;16.48;9.00;;;14.10;99.90;;;;;;5345363;26;20132;-72
2024/05/06 05:19:09;;;;;;;10.40;5.55;;;14.00;99.90;;;;;;5344266;26;20005;-72
2024/05/06 05:21:34;;;;;;;8.13;4.95;;;14.00;99.90;;;;;;5346624;26;20027;-71
2024/05/06 05:24:00;;;;;;;14.15;7.28;;;14.00;99.90;;;;;;5347905;26;19997;-72
2024/05/06 05:26:26;;;;;;;6.15;4.18;;;14.00;99.90;;;;;;5348468;26;20009;-71
2024/05/06 05:28:51;;;;;;;6.00;3.20;;;14.10;99.90;;;;;;5348399;26;20358;-72
2024/05/06 05:31:17;;;;;;;6.30;3.83;;;14.10;99.90;;;;;;5348000;26;20001;-72
2024/05/06 05:33:43;;;;;;;8.35;4.60;;;14.10;99.90;;;;;;5347856;26;20016;-72
2024/05/06 05:36:08;;;;;;;76.70;35.85;;;14.10;99.90;;;;;;5334663;26;20013;-72
2024/05/06 05:38:34;;;;;;;47.60;26.00;;;14.10;99.90;;;;;;5313628;27;20093;-72
2024/05/06 05:41:00;;;;;;;26.55;15.23;;;14.00;99.90;;;;;;5312821;27;20414;-72
2024/05/06 05:43:25;;;;;;;16.80;9.75;;;14.00;99.90;;;;;;5313527;27;20009;-72
2024/05/06 05:45:51;;;;;;;13.38;8.45;;;14.00;99.90;;;;;;5340098;26;20048;-71
2024/05/06 05:48:16;;;;;;;17.33;9.93;;;14.10;99.90;;;;;;5345968;26;19996;-74
2024/05/06 05:50:42;;;;;;;11.77;7.82;;;14.10;99.90;;;;;;5313873;26;20076;-75
2024/05/06 05:53:11;;;;;;;6.97;5.35;;;14.20;99.90;;;;;;5342501;26;19997;-73
2024/05/06 05:55:37;;;;;;;8.55;5.35;;;14.30;99.90;;;;;;5347835;26;20005;-73
2024/05/06 05:58:03;;;;;;;9.50;4.70;;;14.30;99.90;;;;;;5347986;26;20445;-74
2024/05/06 06:00:28;;;;;;;7.53;4.50;;;14.40;99.90;;;;;;5348291;26;19993;-73
2024/05/06 06:02:54;;;;;;;6.32;3.90;;;14.30;99.90;;;;;;5348365;26;20012;-75
2024/05/06 06:05:20;;;;;;;5.68;3.80;;;14.40;99.90;;;;;;5347621;26;20015;-72
2024/05/06 06:07:45;;;;;;;5.03;3.70;;;14.50;99.90;;;;;;5347649;26;20047;-72
2024/05/06 06:10:11;;;;;;;5.63;3.80;;;14.50;99.90;;;;;;5348054;26;20005;-72
2024/05/06 06:12:37;;;;;;;5.88;3.70;;;14.50;99.90;;;;;;5348342;26;20078;-72
2024/05/06 06:15:03;;;;;;;5.18;3.55;;;14.60;99.90;;;;;;5347869;26;20036;-71
2024/05/06 06:17:28;;;;;;;5.28;2.92;;;14.60;99.90;;;;;;5347766;26;20476;-72
2024/05/06 06:19:54;;;;;;;7.28;2.50;;;14.60;99.90;;;;;;5348036;26;21038;-71
2024/05/06 06:22:20;;;;;;;4.70;2.97;;;14.70;99.90;;;;;;5347427;26;20001;-73
2024/05/06 06:24:45;;;;;;;4.38;2.70;;;14.90;99.90;;;;;;5336919;26;20001;-73
2024/05/06 06:27:11;;;;;;;5.53;2.65;;;15.00;99.90;;;;;;5320796;26;20361;-73
2024/05/06 06:29:36;;;;;;;4.65;2.80;;;15.00;99.90;;;;;;5343801;26;20116;-69
2024/05/06 06:32:02;;;;;;;5.55;2.80;;;15.10;99.90;;;;;;5342433;26;20017;-71
2024/05/06 06:34:28;;;;;;;4.35;2.90;;;15.20;99.90;;;;;;5324153;26;20000;-73
2024/05/06 06:36:53;;;;;;;2.85;1.80;;;15.40;99.90;;;;;;5346835;26;20001;-72
2024/05/06 06:39:19;;;;;;;3.08;1.85;;;15.50;99.90;;;;;;5347466;26;20518;-73
2024/05/06 06:41:45;;;;;;;4.70;1.60;;;15.50;99.90;;;;;;5325828;26;20013;-74
2024/05/06 06:44:11;;;;;;;2.83;1.90;;;15.50;99.90;;;;;;5312565;27;20016;-73
2024/05/06 06:46:36;;;;;;;4.13;2.05;;;15.50;99.90;;;;;;5312695;27;19998;-72
2024/05/06 06:49:02;;;;;;;8.40;2.28;;;15.70;99.90;;;;;;5336324;26;20079;-68
2024/05/06 06:51:28;;;;;;;5.53;1.65;;;15.90;99.90;;;;;;5318989;26;20013;-75
2024/05/06 06:53:53;;;;;;;4.30;2.00;;;16.00;99.90;;;;;;5312317;26;20336;-76
2024/05/06 06:56:19;;;;;;;3.33;1.48;;;16.20;99.90;;;;;;5330985;26;20437;-74
2024/05/06 06:58:44;;;;;;;4.18;1.52;;;16.40;99.90;;;;;;5346855;26;20012;-73
2024/05/06 07:01:13;;;;;;;3.03;1.52;;;16.50;99.90;;;;;;5347377;26;19997;-73
2024/05/06 07:03:39;;;;;;;3.00;1.40;;;16.70;99.90;;;;;;5346509;26;20045;-73
2024/05/06 07:06:05;;;;;;;2.45;1.35;;;16.90;99.90;;;;;;5347165;26;20000;-73
2024/05/06 07:08:30;;;;;;;3.92;1.75;;;17.10;99.90;;;;;;5346712;26;20044;-73
2024/05/06 07:10:56;;;;;;;4.07;1.75;;;17.50;99.90;;;;;;5380266;26;20058;-74
2024/05/06 07:13:21;;;;;;;3.20;1.60;;;17.80;99.90;;;;;;5381803;26;20465;-75
2024/05/06 07:15:49;;;;;;;2.85;1.30;;;18.20;99.90;;;;;;5382341;26;20082;-75
2024/05/06 07:18:14;;;;;;;2.22;1.17;;;18.30;99.90;;;;;;5382112;26;20008;-69
2024/05/06 07:20:40;;;;;;;2.90;1.13;;;18.50;99.90;;;;;;5382197;26;19993;-73
2024/05/06 07:23:06;;;;;;;4.28;1.42;;;18.70;99.90;;;;;;5359315;26;20322;-73
2024/05/06 07:25:31;;;;;;;4.28;1.73;;;18.90;99.90;;;;;;5346599;26;20346;-74
2024/05/06 07:27:57;;;;;;;3.25;1.50;;;18.90;99.90;;;;;;5346393;26;20013;-74
2024/05/06 07:30:25;;;;;;;1.88;1.17;;;19.10;99.90;;;;;;5346704;26;20015;-72
2024/05/06 07:32:50;;;;;;;2.30;1.10;;;19.20;99.90;;;;;;5331047;26;19998;-72
2024/05/06 07:35:16;;;;;;;4.18;1.38;;;19.20;99.90;;;;;;5346592;26;20007;-73
2024/05/06 07:37:42;;;;;;;5.20;3.00;;;19.10;99.90;;;;;;5347075;26;20031;-72
2024/05/06 07:40:08;;;;;;;3.50;1.40;;;19.30;99.90;;;;;;5346796;26;20001;-72
2024/05/06 07:42:35;;;;;;;2.15;1.20;;;19.30;99.90;;;;;;5347030;26;20004;-71
2024/05/06 07:45:02;;;;;;;5.07;1.60;;;19.60;99.90;;;;;;5344703;26;20067;-73
2024/05/06 07:47:27;;;;;;;2.97;1.50;;;19.80;99.90;;;;;;5346849;26;20078;-72
2024/05/06 07:49:53;;;;;;;3.10;1.48;;;19.90;99.90;;;;;;5346082;26;20001;-72
2024/05/06 07:52:19;;;;;;;5.25;1.40;;;20.10;99.90;;;;;;5346718;26;19999;-72
2024/05/06 07:54:44;;;;;;;2.15;1.00;;;20.20;99.90;;;;;;5346523;26;20342;-72
2024/05/06 07:57:10;;;;;;;7.07;1.75;;;20.40;99.90;;;;;;5346209;26;20441;-72
2024/05/06 07:59:36;;;;;;;5.20;1.30;;;20.30;99.90;;;;;;5346397;26;19996;-72
2024/05/06 08:02:01;;;;;;;4.53;2.40;;;20.10;99.90;;;;;;5346070;26;20016;-73
2024/05/06 08:04:27;;;;;;;3.65;1.10;;;19.90;99.90;;;;;;5346422;26;20008;-74
2024/05/06 08:06:52;;;;;;;3.17;1.05;;;20.10;99.90;;;;;;5346348;26;20020;-73
2024/05/06 08:09:19;;;;;;;5.30;1.20;;;20.30;99.90;;;;;;5346684;26;20118;-74
2024/05/06 08:11:45;;;;;;;3.17;0.98;;;20.40;99.90;;;;;;5341832;26;20015;-72
2024/05/06 08:14:11;;;;;;;4.03;1.05;;;20.50;99.90;;;;;;5327568;26;20009;-72
2024/05/06 08:16:36;;;;;;;2.33;0.80;;;20.60;99.90;;;;;;5327326;26;19997;-71
2024/05/06 08:19:03;;;;;;;1.52;0.90;;;20.60;99.90;;;;;;5324874;26;20450;-72
2024/05/06 08:21:32;;;;;;;2.35;1.20;;;20.80;99.90;;;;;;5328446;26;20039;-74
2024/05/06 08:23:58;;;;;;;6.18;1.15;;;20.90;99.90;;;;;;5329471;26;20005;-72
2024/05/06 08:26:23;;;;;;;2.58;1.20;;;21.00;99.90;;;;;;5326355;26;20016;-72
2024/05/06 08:28:49;;;;;;;2.75;0.93;;;21.20;99.90;;;;;;5331597;26;19998;-72
2024/05/06 08:31:15;;;;;;;4.03;1.00;;;21.30;99.90;;;;;;5327514;26;20000;-72
2024/05/06 08:33:40;;;;;;;3.45;1.02;;;21.10;99.90;;;;;;5326492;26;20009;-72
2024/05/06 08:36:06;;;;;;;2.65;1.00;;;21.30;99.90;;;;;;5329676;26;20074;-77
2024/05/06 08:38:32;;;;;;;3.22;0.88;;;21.40;99.90;;;;;;5328019;26;20439;-74
2024/05/06 08:40:57;;;;;;;3.20;0.93;;;21.30;99.90;;;;;;5326886;26;20410;-77
2024/05/06 08:43:23;;;;;;;4.38;1.90;;;21.30;99.90;;;;;;5311221;27;19994;-74
2024/05/06 08:45:50;;;;;;;2.20;0.80;;;21.30;99.90;;;;;;5311562;27;20001;-75
2024/05/06 08:48:19;;;;;;;3.15;0.98;;;21.40;99.90;;;;;;5317490;26;20055;-73
2024/05/06 08:50:49;;;;;;;4.47;1.35;;;21.60;99.90;;;;;;5337751;26;20005;-74
2024/05/06 08:53:16;;;;;;;2.38;0.90;;;21.90;99.90;;;;;;5332725;26;20011;-72
2024/05/06 08:55:46;;;;;;;3.97;0.73;;;22.20;99.90;;;;;;5318044;26;20013;-73
2024/05/06 08:58:12;;;;;;;2.53;1.10;;;22.20;99.90;;;;;;5314977;26;19997;-70
2024/05/06 09:00:38;;;;;;;1.63;0.70;;;22.40;99.90;;;;;;5349104;26;20008;-72
2024/05/06 09:03:04;;;;;;;3.58;1.20;;;22.10;99.90;;;;;;5348767;26;20060;-73
2024/05/06 09:05:37;;;;;;;2.97;0.95;;;22.20;99.90;;;;;;5348659;26;19997;-73
2024/05/06 09:08:05;;;;;;;3.28;0.98;;;22.20;99.90;;;;;;5348615;26;20000;-73
2024/05/06 09:10:32;;;;;;;2.28;0.88;;;22.20;99.90;;;;;;5348474;26;20324;-73
2024/05/06 09:12:58;;;;;;;1.15;0.63;;;22.20;99.90;;;;;;5333135;26;20315;-72
2024/05/06 09:15:24;;;;;;;3.25;1.00;;;22.10;99.90;;;;;;5348992;26;20053;-72
2024/05/06 09:17:50;;;;;;;2.97;1.00;;;22.00;99.90;;;;;;5348657;26;19997;-73
2024/05/06 09:20:16;;;;;;;3.42;1.02;;;22.10;99.90;;;;;;5331943;26;20452;-74
2024/05/06 09:22:41;;;;;;;3.75;0.82;;;22.30;99.90;;;;;;5333624;26;20477;-74
2024/05/06 09:25:14;;;;;;;2.42;0.98;;;22.30;99.90;;;;;;5348365;26;20321;-74
2024/05/06 09:27:40;;;;;;;5.85;1.10;;;22.10;99.90;;;;;;5348320;26;20004;-73
2024/05/06 09:30:07;;;;;;;1.92;0.98;;;22.00;99.90;;;;;;5347270;26;20008;-72
2024/05/06 09:32:34;;;;;;;1.98;0.90;;;22.00;99.90;;;;;;5349275;26;20041;-72
2024/05/06 09:35:05;;;;;;;3.30;1.65;;;21.90;99.90;;;;;;5347969;26;20074;-72
2024/05/06 09:37:33;;;;;;;4.47;0.83;;;21.80;99.90;;;;;;5338002;26;20355;-73
2024/05/06 09:40:02;;;;;;;3.22;0.90;;;21.70;99.90;;;;;;5342998;26;20413;-71
2024/05/06 09:42:35;;;;;;;2.90;1.10;;;22.00;99.60;;;;;;5348667;26;20124;-73
2024/05/06 09:45:01;;;;;;;3.78;0.88;;;21.90;99.90;;;;;;5348336;26;20473;-73
2024/05/06 09:47:30;;;;;;;3.50;0.90;;;21.80;99.90;;;;;;5348580;26;20079;-72
2024/05/06 09:49:58;;;;;;;4.13;1.92;;;21.50;99.50;;;;;;5348333;26;20333;-70
2024/05/06 09:52:25;;;;;;;3.15;1.15;;;21.50;99.90;;;;;;5342725;26;20016;-71
2024/05/06 09:54:51;;;;;;;3.80;1.20;;;21.80;99.90;;;;;;5331542;26;20013;-71
2024/05/06 09:57:19;;;;;;;2.20;0.88;;;22.00;99.40;;;;;;5355329;26;20008;-74
2024/05/06 09:59:46;;;;;;;2.67;0.95;;;22.20;99.10;;;;;;5354359;26;19993;-73
2024/05/06 10:02:17;;;;;;;4.43;1.05;;;22.50;99.10;;;;;;5369484;26;19997;-73
2024/05/06 10:04:47;;;;;;;3.42;1.00;;;22.70;97.80;;;;;;5319554;26;20017;-71
2024/05/06 10:07:16;;;;;;;1.77;0.80;;;22.80;97.20;;;;;;5312896;27;20017;-72
2024/05/06 10:10:05;;;;;;;2.35;0.65;;;22.80;96.60;;;;;;5313005;27;19998;-72
2024/05/06 10:12:32;;;;;;;5.20;1.00;;;22.70;94.90;;;;;;5304692;26;20118;-74
2024/05/06 10:15:03;;;;;;;3.58;0.93;;;22.70;94.30;;;;;;5344197;26;20437;-73
2024/05/06 10:17:43;;;;;;;4.50;1.00;;;22.50;94.50;;;;;;5347540;26;19993;-73
2024/05/06 10:20:16;;;;;;;4.40;1.08;;;22.30;94.40;;;;;;5313241;26;19998;-70
2024/05/06 10:22:54;;;;;;;3.70;1.02;;;22.20;94.90;;;;;;5347118;26;20072;-71
2024/05/06 10:25:21;;;;;;;4.03;1.10;;;22.20;94.60;;;;;;5340777;26;20001;-72
2024/05/06 10:27:53;;;;;;;3.05;1.08;;;22.40;94.10;;;;;;5342052;26;20001;-75
2024/05/06 10:30:21;;;;;;;3.72;1.20;;;23.00;93.40;;;;;;5347312;26;20009;-73
2024/05/06 10:32:47;;;;;;;2.47;1.02;;;23.60;91.30;;;;;;5347692;26;20004;-72
2024/05/06 10:35:14;;;;;;;5.72;1.08;;;24.00;91.30;;;;;;5347065;26;20393;-71
2024/05/06 10:37:39;;;;;;;3.20;0.73;;;24.60;90.00;;;;;;5349384;26;20000;-72
2024/05/06 10:40:07;;;;;;;5.45;0.82;;;24.70;87.70;;;;;;5356984;26;20017;-74
2024/05/06 10:42:37;;;;;;;3.28;0.90;;;24.60;85.60;;;;;;5328824;26;20464;-74
2024/05/06 10:45:09;;;;;;;5.45;0.80;;;24.30;86.10;;;;;;5327137;26;20087;-74
2024/05/06 10:47:34;;;;;;;2.33;1.00;;;23.90;88.30;;;;;;5337312;26;20379;-73
2024/05/06 10:50:01;;;;;;;6.68;1.00;;;24.00;90.00;;;;;;5345495;26;20009;-74
2024/05/06 10:52:27;;;;;;;3.28;1.10;;;24.20;87.50;;;;;;5374137;26;20007;-75
2024/05/06 10:54:57;;;;;;;3.60;0.90;;;24.00;87.50;;;;;;5382254;26;20037;-75
2024/05/06 10:57:24;;;;;;;4.45;0.90;;;24.20;88.30;;;;;;5381828;26;20348;-76
2024/05/06 10:59:50;;;;;;;2.60;0.90;;;24.20;87.10;;;;;;5352235;26;20454;-73
2024/05/06 11:02:16;;;;;;;1.75;0.80;;;24.00;89.20;;;;;;5335372;26;20333;-75
2024/05/06 11:04:43;;;;;;;2.05;0.90;;;24.10;87.20;;;;;;5338313;26;20078;-74
2024/05/06 11:07:09;;;;;;;2.03;0.82;;;23.70;88.80;;;;;;5351380;26;19997;-73
2024/05/06 11:09:45;;;;;;;2.55;0.88;;;23.80;90.30;;;;;;5346993;26;20019;-71
2024/05/06 11:12:18;;;;;;;3.15;0.80;;;23.60;89.60;;;;;;5346713;26;20013;-73
2024/05/06 11:14:50;;;;;;;1.75;0.73;;;23.20;92.10;;;;;;5346598;26;20452;-71
2024/05/06 11:17:17;;;;;;;3.63;1.17;;;22.70;91.60;;;;;;5346663;26;19997;-72
2024/05/06 11:19:47;;;;;;;2.40;0.95;;;22.30;93.00;;;;;;5346171;26;20341;-74
2024/05/06 11:22:22;;;;;;;5.00;1.17;;;21.90;91.90;;;;;;5346730;26;20044;-75
2024/05/06 11:24:51;;;;;;;3.90;1.20;;;21.30;93.10;;;;;;5346433;26;20000;-75
2024/05/06 11:27:18;;;;;;;4.90;1.33;;;21.10;94.60;;;;;;5346889;26;20008;-72
2024/05/06 11:29:45;;;;;;;3.67;1.10;;;20.80;95.20;;;;;;5357348;26;20070;-72
2024/05/06 11:32:10;;;;;;;3.67;1.25;;;20.80;97.30;;;;;;5346300;26;20017;-73
2024/05/06 11:34:36;;;;;;;2.33;1.08;;;20.70;97.10;;;;;;5346079;26;19993;-73
2024/05/06 11:37:02;;;;;;;3.80;1.30;;;20.60;97.80;;;;;;5374571;26;20015;-72
2024/05/06 11:39:27;;;;;;;2.65;1.25;;;20.50;99.40;;;;;;5381125;26;19996;-72
2024/05/06 11:41:53;;;;;;;2.78;1.13;;;20.50;99.50;;;;;;5381243;26;19996;-73
2024/05/06 11:44:19;;;;;;;3.58;0.90;;;20.40;99.90;;;;;;5380984;26;20085;-72
2024/05/06 11:46:44;;;;;;;3.05;1.10;;;20.20;99.90;;;;;;5381247;26;19992;-73
2024/05/06 11:49:11;;;;;;;9.07;1.70;;;20.20;99.90;;;;;;5380522;26;20008;-75
2024/05/06 11:51:37;;;;;;;3.03;1.10;;;20.10;99.90;;;;;;5381481;26;20077;-74
2024/05/06 11:54:02;;;;;;;4.05;1.40;;;20.20;99.90;;;;;;5334523;26;20342;-75
2024/05/06 11:56:28;;;;;;;5.60;1.25;;;20.20;99.90;;;;;;5326856;26;20110;-76
2024/05/06 11:58:54;;;;;;;5.68;1.20;;;20.20;99.90;;;;;;5326215;26;20288;-72
2024/05/06 12:01:19;;;;;;;3.45;1.05;;;20.20;99.90;;;;;;5345792;26;20001;-72
2024/05/06 12:03:45;;;;;;;2.22;1.10;;;20.30;99.90;;;;;;5344865;26;20013;-72
2024/05/06 12:06:11;;;;;;;3.92;0.98;;;20.30;99.90;;;;;;5345728;26;20001;-71
2024/05/06 12:08:36;;;;;;;6.70;1.38;;;20.40;99.90;;;;;;5346103;26;20145;-71
2024/05/06 12:11:02;;;;;;;4.57;1.00;;;20.20;99.90;;;;;;5345884;26;20011;-73
2024/05/06 12:13:28;;;;;;;6.40;1.60;;;20.00;99.90;;;;;;5345589;26;20340;-71
2024/05/06 12:15:53;;;;;;;3.10;1.00;;;19.70;99.90;;;;;;5345831;26;20047;-70
2024/05/06 12:18:19;;;;;;;3.08;1.10;;;19.10;99.90;;;;;;5346066;26;19997;-71
2024/05/06 12:20:44;;;;;;;1.70;0.90;;;19.00;99.90;;;;;;5345985;26;20000;-71
2024/05/06 12:23:10;;;;;;;2.67;0.90;;;18.90;99.90;;;;;;5345287;26;19997;-71
2024/05/06 12:25:36;;;;;;;4.03;1.52;;;18.70;99.90;;;;;;5345375;26;20001;-72
2024/05/06 12:28:01;;;;;;;2.22;0.93;;;18.70;99.90;;;;;;5346015;26;20341;-70
2024/05/06 12:30:27;;;;;;;5.53;1.40;;;18.80;99.90;;;;;;5344685;26;20001;-70
2024/05/06 12:32:52;;;;;;;3.05;1.10;;;18.80;99.90;;;;;;5346463;26;19993;-68
2024/05/06 12:35:18;;;;;;;10.88;3.38;;;18.90;99.90;;;;;;5345295;26;19999;-71
2024/05/06 12:37:44;;;;;;;4.70;1.63;;;18.80;99.90;;;;;;5345987;26;19993;-70
2024/05/06 12:40:10;;;;;;;2.72;1.20;;;18.80;99.90;;;;;;5345599;26;20082;-71
2024/05/06 12:42:35;;;;;;;4.65;1.60;;;18.50;99.90;;;;;;5345646;26;20456;-71
2024/05/06 12:45:01;;;;;;;4.57;1.13;;;18.50;99.90;;;;;;5344826;26;20001;-71